Timeline UpdatesTrip UpdatesNews PostsPvt PostsTravel TipsAdmin PostsConv PostsFollowed PostsChat RequestsBlog PostsPNR Posts

Disclaimer
Search
 
 
Wed Sep 3, 2014 12:28:31 ISTHomeTrainsΣChainsAtlasPNRForumGalleryNewsFAQTripsMembersLoginFeedback
No Recent News for this Train
Other Trains in the News **new
Latest...
Cancelled from 16/6/14-23/6/14 #1132763
Thu Jun 12, 2014 (07:54PM)
⇐ Return Journey: Train# 53343

53344/Chopan- NSCB Gomoh Jn Passenger (UnReserved)

OLD Time-Table. Click here to UPDATE TT
Oct 08 2013 (10:04PM)
Change Departure Station:
Change Arrival Station:
Post a Train Travel TipPost a Train Travel Tip **new
Post a Comment/Question/Picture/VideoPost a Comment/Question/Picture/Video
Pantry/Catering
✕ NO Pantry Car
✕ NO Catering
Loco/Rake Reversals
BRKA/Barkakana Junction (4);
RSA - Rake Sharing
Rake/Coach Composition
Loco
News    PNR    Forum    Time-Table    Availability    Fare Chart    Map    Arr/Dep History    Trips    Gallery    ΣChains    X/O    Timeline    
Travel Time: 9h 56m    44 halts    Distance: 350 km    Avg Speed: 35 km/hr
Type: Passenger
Zone: ECR/East Central
Departs @ 09:49
Platform# 1
SMTWTFS
Ramna/RMF 
Arrives @ 19:45
Platform# 5
SMTWTFS
Netaji SC Bose Gomoh Junction/GMO 

44 halts. 47 intermediate Stations between Ramna and Netaji SC Bose Gomoh Junction

Show ALL intermediate Stations  

#CodeStation NameX/OArrivesAvgDepartsAvgHaltPFDay#KmSpeedElevZoneAddress
1CPUChopan (3)  -06:40-11-108.463194mECRSH 5A Sonebhadra, Uttar Pradesh
2BXLLBilli Junction (1)X  06:46-06:47-1m11-102.120205mECRBilli Road, Uttar Pradesh
3SLBNSalai Banwa  07:02-07:03-1m--1-97.262211mECRSalai Banwa, Uttar Pradesh
4GMXGurmuraX  07:16-07:18-2m--1-83.812274mECRGurmura, Uttar Pradesh
5JGFJogidih  07:49-07:50-1m--1-77.543291mECRJogidih, Uttar Pradesh
6RNQRenukut (3)  08:05-08:08-3m11-66.745310mECRSonbhadra, Uttar Pradesh
7MPFMuirpur Road  08:21-08:22-1m--1-56.923305mECRMuirpur, Uttar Pradesh
8JRQJharokhas  08:34-08:35-1m--1-52.337287mECRNational Highway 75, Uttar Pradesh
9DXNDuddhinagar  08:46-08:47-1m11-45.649250mECRSonebhadra, Uttar Pradesh
10MXYMahuariya  09:02-09:03-1m--1-33.548247mECRSonebhadra, Uttar Pradesh
11WDMWyndhamGanj (1)  09:16-09:17-1m11-23.064243mECRSonebhadra, Uttar Pradesh
12NUQNagar Untari (1)  09:28-09:30-2m11-11.338248mECRGarhwa, Jharkhand
13RMF»Ramna (1)»  09:48-09:49-1m110.054245mECRDist. Garhwa, Jharkhand
14MQXMeralgram (1)  10:02-10:03-1m1111.651251mECRGarhwa, Jharkhand
15GHQGarhwa (1)  10:16-10:17-1m1122.746211mECRGarhwa, Jharkhand
16GHDGarhwa Road Junction (3)  10:30-10:35-5m--132.844188mECRPalamu, Jharkhand
17TRZTolra (2)  10:43-10:44-1m--138.635192mECRPalamu, Jharkhand
18RHRRajhura (2)  11:01-11:02-1m--148.485205mECRDist. Palamu, Jharkhand
19KFTKajri (2)X  11:10-11:11-1m--159.738216mECRBairia, Jharkhand
20DTODaltonGanj (3)  11:21-11:23-2m2166.147234mECR230812, Jharkhand
21CNFChianki  11:32-11:33-1m--173.152237mECRNational Highway 75, Jharkhand
22KCKIKechki  11:42-11:43-1m--180.828250mECRKechki, Jharkhand
23MAZMangra  11:54-11:55-1m--185.930257mECRMangra, Jharkhand
24BRWDBarwadih Junction (3)  12:10-12:20-10m--193.625295mECRDist. Latehar, Jharkhand
25CPDRChhipadohar (2)X  12:40-12:41-1m--1101.851339mECRChipadohar bypass, Jharkhand
26HHGHehegara Halt  12:51-12:52-1m--1110.452332mECRMatnagj, Jharkhand
27KMNDKumendiX  13:03-13:04-1m--1120.058353mECRMatnagj, Jharkhand
28BFQBendi  13:12-13:13-1m--1127.745370mECRNational Highway 75, Jharkhand
29LTHRLatehar (2)  13:21-13:22-1m--1133.746381mECRLatehar, Jharkhand
30DEMUDemu  13:30-13:31-1m--1139.946414mECRNational Highway 75, Jharkhand
31RCGTRichughutu  13:42-13:43-1m--1148.350450mECRNational Highway 75, Jharkhand
32CTQChetar  13:53-13:54-1m--1156.664479mECRNational Highway 75, Jharkhand
33TORITori (2)  14:03-14:04-1m11166.277515mECRChandwa, Jharkhand
34MMLNMahuamilan  14:14-14:15-1m--1179.069486mECRNational Highway 75, Jharkhand
35MGMEMcCluskieGanj (3)X  14:23-14:24-1m--1188.247476mECRPipra Toli, Jharkhand
36KLREKhalari (3)  14:32-14:33-1m--1194.461459mECRKhelari, Jharkhand
37RAYRay (2)  14:42-14:43-1m--1203.557447mECRRanchi, Jharkhand
38HNDRHendegir  14:55-14:56-1m--1214.843397mECRBadam Rd, Jharkhand
39TKSTokisud  15:08-15:09-1m--1223.436373mECRKhakhra, Jharkhand
40PTRUPatratu (3)  15:21-15:22-1m--1230.645373mECRDistt: Ramgarh, Jharkhand
41BHKDBhurkunda (1)  15:33-15:34-1m11238.856363mECRRamgarh, Jharkhand
42BRKABarkakana Junction (4)15:45-16:15-30m--1249.030341mECR0653-255225, Jharkhand
43RRMERanchi Road (2)O  16:33-16:35-2m--1258.043355mECR06553-222042, Jharkhand
44KMHTKarmahat  16:46-16:47-1m--1265.933394mECRHazaribagh, Jharkhand
45CNPRChainpurO  16:55-16:56-1m--1270.337409mECRChainpur, Jharkhand
46JGBRJogeshwar Bihar  17:04-17:05-1m--1275.248370mECRHazaribagh, Jharkhand
47DNEADaneaO  17:15-17:16-1m--1283.360308mECRChurChu Rd, Jharkhand
48DMBRDumri Bihar  17:27-17:28-1m--1294.219286mECRHazaribagh, Jharkhand
49GMIAGumia  17:49-17:50-1m--1301.042273mECR06544-261249, Jharkhand
50BKROBokaro Thermal (1)  17:58-17:59-1m11306.653240mECRPhusro, Jharkhand
51JANJarangdihO  18:06-18:07-1m--1312.719237mECRNational Highway 23, Jharkhand
52BRMOBermo  18:16-18:17-1m--1315.518214mECRBermo Railway Station, Jharkhand
53AMLOAmloX  18:26-18:27-1m--1318.224233mECRPhusro, Jharkhand
54PUSPhusroX  18:35-18:36-1m--1321.324216mECR06549-222754, Jharkhand
55BHMEBhandaridahXO  18:51-18:52-1m--1327.518212mECRStation Rd, Jharkhand
56CRPChandrapura Junction (2)O  19:10-19:15-5m21332.942227mECR06549-242555, Jharkhand
57TELOTelo  19:26-19:28-2m--1340.535227mECRBokaro, Jharkhand
58GMO•Netaji SC Bose Gomoh Junction (6)•  19:45--51350.3-239mECRGomoh, Jharkhand
Scroll to Top
Scroll to Bottom